createdAt,value
2022-12-04T00:00:27.487Z,99098.31
2022-12-04T00:02:57.432Z,99091.06
2022-12-04T00:05:25.639Z,99087.50
2022-12-04T00:07:54.323Z,99076.84
2022-12-04T00:10:22.802Z,99081.13
2022-12-04T00:12:52.937Z,99081.97
2022-12-04T00:15:25.903Z,99087.09
2022-12-04T00:17:56.823Z,99094.72
2022-12-04T00:20:25.817Z,99094.44
2022-12-04T00:22:54.239Z,99098.72
2022-12-04T00:25:24.219Z,99088.66
2022-12-04T00:27:52.649Z,99081.16
2022-12-04T00:30:21.363Z,99088.94
2022-12-04T00:32:49.679Z,99080.34
2022-12-04T00:35:20.215Z,99080.31
2022-12-04T00:37:48.460Z,99083.91
2022-12-04T00:40:17.085Z,99088.19
2022-12-04T00:42:48.275Z,99078.69
2022-12-04T00:45:17.029Z,99080.50
2022-12-04T00:47:47.691Z,99076.09
2022-12-04T00:50:16.324Z,99083.66
2022-12-04T00:52:47.167Z,99096.06
2022-12-04T00:55:15.861Z,99095.97
2022-12-04T00:57:44.056Z,99094.75
2022-12-04T01:00:12.900Z,99091.25
2022-12-04T01:02:42.269Z,99089.03
2022-12-04T01:05:10.867Z,99089.78
2022-12-04T01:07:39.544Z,99083.88
2022-12-04T01:10:14.927Z,99098.31
2022-12-04T01:12:45.172Z,99095.72
2022-12-04T01:15:13.641Z,99096.81
2022-12-04T01:17:42.205Z,99097.63
2022-12-04T01:20:13.000Z,99104.53
2022-12-04T01:22:41.402Z,99103.88
2022-12-04T01:25:13.913Z,99099.06
2022-12-04T01:27:42.337Z,99091.75
2022-12-04T01:30:13.338Z,99092.91
2022-12-04T01:32:41.975Z,99091.94
2022-12-04T01:35:10.982Z,99089.00
2022-12-04T01:37:39.665Z,99080.56
2022-12-04T01:40:14.223Z,99066.78
2022-12-04T01:42:44.194Z,99064.56
2022-12-04T01:45:42.277Z,99062.56
2022-12-04T01:48:20.743Z,99064.56
2022-12-04T01:50:53.550Z,99063.66
2022-12-04T01:53:22.968Z,99052.81
2022-12-04T01:55:53.708Z,99047.56
2022-12-04T01:58:28.937Z,99047.84
2022-12-04T02:01:08.284Z,99048.00
2022-12-04T02:03:39.855Z,99053.34
2022-12-04T02:06:08.769Z,99054.88
2022-12-04T02:08:38.909Z,99051.78
2022-12-04T02:11:18.687Z,99049.31
2022-12-04T02:13:58.546Z,99041.63
2022-12-04T02:16:37.405Z,99041.28
2022-12-04T02:19:24.386Z,99057.66
2022-12-04T02:21:57.608Z,99045.50
2022-12-04T02:24:48.376Z,99038.69
2022-12-04T02:27:34.768Z,99042.59
2022-12-04T02:30:07.922Z,99036.44
2022-12-04T02:32:43.950Z,99048.63
2022-12-04T02:35:17.010Z,99049.16
2022-12-04T02:37:49.546Z,99053.06
2022-12-04T02:40:24.071Z,99065.16
2022-12-04T02:42:59.599Z,99075.47
2022-12-04T02:45:40.039Z,99077.59
2022-12-04T02:48:10.410Z,99073.78
2022-12-04T02:50:42.182Z,99074.44
2022-12-04T02:53:16.761Z,99071.19
2022-12-04T02:55:50.065Z,99078.84
2022-12-04T02:58:24.795Z,99075.94
2022-12-04T03:01:00.528Z,99067.63
2022-12-04T03:03:32.060Z,99073.53
2022-12-04T03:06:04.207Z,99067.53
2022-12-04T03:08:36.547Z,99073.69
2022-12-04T03:11:04.971Z,99080.44
2022-12-04T03:13:41.186Z,99080.50
2022-12-04T03:16:16.977Z,99059.09
2022-12-04T03:18:51.032Z,99071.72
2022-12-04T03:21:24.778Z,99064.88
2022-12-04T03:23:58.296Z,99065.94
2022-12-04T03:26:32.915Z,99068.31
2022-12-04T03:29:07.882Z,99063.53
2022-12-04T03:31:45.506Z,99057.53
2022-12-04T03:34:17.393Z,99068.09
2022-12-04T03:36:53.294Z,99070.69
2022-12-04T03:39:26.648Z,99051.69
2022-12-04T03:42:00.693Z,99054.22
2022-12-04T03:44:37.285Z,99055.16
2022-12-04T03:47:12.294Z,99054.22
2022-12-04T03:49:46.343Z,99056.66
2022-12-04T03:52:22.284Z,99061.69
2022-12-04T03:54:54.755Z,99074.53
2022-12-04T03:57:27.754Z,99075.09
2022-12-04T04:00:06.002Z,99069.94
2022-12-04T04:02:41.147Z,99065.53
2022-12-04T04:05:12.917Z,99051.66
2022-12-04T04:07:45.962Z,99063.59
2022-12-04T04:10:17.252Z,99062.13
2022-12-04T04:13:12.227Z,99058.13
2022-12-04T04:16:03.558Z,99056.53
2022-12-04T04:18:51.397Z,99050.47
2022-12-04T04:21:40.427Z,99053.19
2022-12-04T04:24:18.463Z,99055.63
2022-12-04T04:26:48.906Z,99058.38
2022-12-04T04:29:17.452Z,99060.75
2022-12-04T04:31:53.732Z,99068.50
2022-12-04T04:34:32.927Z,99059.03
2022-12-04T04:37:08.045Z,99060.13
2022-12-04T04:39:41.087Z,99055.88
2022-12-04T04:42:18.074Z,99055.19
2022-12-04T04:44:53.335Z,99058.38
2022-12-04T04:47:29.731Z,99049.47
2022-12-04T04:50:03.744Z,99064.16
2022-12-04T04:52:33.036Z,99051.56
2022-12-04T04:55:02.700Z,99044.50
2022-12-04T04:57:32.267Z,99048.84
2022-12-04T05:00:01.271Z,99049.75
2022-12-04T05:02:31.983Z,99046.44
2022-12-04T05:05:02.139Z,99053.72
2022-12-04T05:07:30.359Z,99056.13
2022-12-04T05:09:59.272Z,99049.31
2022-12-04T05:12:30.371Z,99055.69
2022-12-04T05:15:00.715Z,99058.53
2022-12-04T05:17:31.826Z,99061.41
2022-12-04T05:20:02.056Z,99062.09
2022-12-04T05:22:32.699Z,99060.81
2022-12-04T05:25:01.728Z,99056.84
2022-12-04T05:27:34.643Z,99060.44
2022-12-04T05:30:03.481Z,99047.22
2022-12-04T05:32:31.740Z,99056.34
2022-12-04T05:34:59.929Z,99062.66
2022-12-04T05:37:29.927Z,99069.94
2022-12-04T05:39:58.876Z,99067.25
2022-12-04T05:42:27.691Z,99062.44
2022-12-04T05:44:56.045Z,99058.00
2022-12-04T05:47:24.556Z,99064.16
2022-12-04T05:49:52.876Z,99070.31
2022-12-04T05:52:21.193Z,99072.03
2022-12-04T05:54:50.709Z,99078.69
2022-12-04T05:57:18.940Z,99072.38
2022-12-04T05:59:47.091Z,99077.94
2022-12-04T06:02:15.561Z,99075.00
2022-12-04T06:04:44.023Z,99069.72
2022-12-04T06:07:13.059Z,99063.09
2022-12-04T06:09:41.490Z,99064.81
2022-12-04T06:12:11.251Z,99058.59
2022-12-04T06:14:40.103Z,99051.78
2022-12-04T06:17:11.684Z,99052.47
2022-12-04T06:19:41.701Z,99066.25
2022-12-04T06:22:10.624Z,99061.00
2022-12-04T06:24:39.018Z,99055.88
2022-12-04T06:30:00.151Z,99049.22
2022-12-04T06:32:28.507Z,99050.00
2022-12-04T06:34:58.859Z,99055.19
2022-12-04T06:37:27.477Z,99057.88
2022-12-04T06:39:56.230Z,99056.97
2022-12-04T06:42:25.913Z,99061.25
2022-12-04T06:44:54.111Z,99065.72
2022-12-04T06:47:25.674Z,99057.78
2022-12-04T06:49:54.223Z,99065.63
2022-12-04T06:52:22.741Z,99070.97
2022-12-04T06:54:50.790Z,99068.38
2022-12-04T06:57:18.922Z,99066.50
2022-12-04T06:59:47.972Z,99080.16
2022-12-04T07:02:16.165Z,99075.25
2022-12-04T07:04:46.151Z,99077.84
2022-12-04T07:07:14.512Z,99081.06
2022-12-04T07:09:43.511Z,99076.91
2022-12-04T07:12:11.705Z,99065.63
2022-12-04T07:14:40.392Z,99072.41
2022-12-04T07:17:08.560Z,99061.84
2022-12-04T07:19:37.992Z,99062.75
2022-12-04T07:22:09.083Z,99067.31
2022-12-04T07:24:38.400Z,99070.78
2022-12-04T07:27:07.022Z,99069.03
2022-12-04T07:29:35.576Z,99077.75
2022-12-04T07:32:04.550Z,99076.91
2022-12-04T07:34:35.166Z,99087.31
2022-12-04T07:37:04.868Z,99087.28
2022-12-04T07:39:34.889Z,99087.25
2022-12-04T07:42:03.198Z,99094.91
2022-12-04T07:44:32.613Z,99090.53
2022-12-04T07:47:00.765Z,99093.06
2022-12-04T07:49:29.434Z,99098.13
2022-12-04T07:51:57.901Z,99091.44
2022-12-04T07:54:27.751Z,99094.66
2022-12-04T07:56:57.730Z,99087.50
2022-12-04T07:59:25.891Z,99087.63
2022-12-04T08:01:55.417Z,99085.94
2022-12-04T08:04:23.648Z,99081.63
2022-12-04T08:06:53.098Z,99071.97
2022-12-04T08:09:21.583Z,99076.31
2022-12-04T08:11:49.699Z,99079.00
2022-12-04T08:14:19.796Z,99078.97
2022-12-04T08:16:53.039Z,99078.41
2022-12-04T08:19:22.538Z,99072.38
2022-12-04T08:21:51.431Z,99073.44
2022-12-04T08:24:19.954Z,99064.00
2022-12-04T08:26:48.400Z,99064.91
2022-12-04T08:29:16.575Z,99070.72
2022-12-04T08:31:46.535Z,99084.69
2022-12-04T08:34:15.563Z,99074.19
2022-12-04T08:36:44.087Z,99078.56
2022-12-04T08:39:13.476Z,99079.41
2022-12-04T08:41:42.005Z,99075.84
2022-12-04T08:44:11.404Z,99081.69
2022-12-04T08:46:40.792Z,99074.97
2022-12-04T08:49:10.764Z,99076.47
2022-12-04T08:51:39.153Z,99091.44
2022-12-04T08:54:11.201Z,99095.50
2022-12-04T08:56:39.622Z,99096.50
2022-12-04T08:59:08.042Z,99099.97
2022-12-04T09:01:36.287Z,99090.19
2022-12-04T09:04:04.909Z,99099.97
2022-12-04T09:06:34.506Z,99096.31
2022-12-04T09:09:02.816Z,99096.09
2022-12-04T09:11:33.055Z,99082.94
2022-12-04T09:14:04.230Z,99082.94
2022-12-04T09:16:34.501Z,99087.44
2022-12-04T09:19:04.673Z,99083.88
2022-12-04T09:21:34.780Z,99083.25
2022-12-04T09:24:03.267Z,99084.03
2022-12-04T09:26:33.639Z,99086.88
2022-12-04T09:29:07.709Z,99089.84
2022-12-04T09:31:37.222Z,99096.88
2022-12-04T09:34:06.078Z,99078.94
2022-12-04T09:36:35.889Z,99076.06
2022-12-04T09:39:06.665Z,99069.88
2022-12-04T09:42:13.045Z,99058.00
2022-12-04T09:44:47.029Z,99063.16
2022-12-04T09:47:23.675Z,99057.94
2022-12-04T09:49:58.396Z,99058.78
2022-12-04T09:52:37.006Z,99062.03
2022-12-04T09:55:13.575Z,99071.09
2022-12-04T09:57:45.830Z,99069.22
2022-12-04T10:00:17.367Z,99071.31
2022-12-04T10:02:50.113Z,99065.06
2022-12-04T10:05:21.711Z,99058.09
2022-12-04T10:08:02.223Z,99055.34
2022-12-04T10:10:39.416Z,99056.72
2022-12-04T10:13:23.719Z,99055.81
2022-12-04T10:16:00.436Z,99053.09
2022-12-04T10:18:42.407Z,99058.38
2022-12-04T10:21:35.631Z,99049.69
2022-12-04T10:24:17.791Z,99051.47
2022-12-04T10:26:48.189Z,99048.88
2022-12-04T10:29:21.982Z,99047.00
2022-12-04T10:31:55.492Z,99054.16
2022-12-04T10:34:28.376Z,99052.38
2022-12-04T10:37:01.894Z,99047.81
2022-12-04T10:39:39.070Z,99051.06
2022-12-04T10:42:25.560Z,99056.00
2022-12-04T10:44:54.062Z,99049.72
2022-12-04T10:47:24.899Z,99046.41
2022-12-04T10:50:03.990Z,99044.78
2022-12-04T10:52:32.212Z,99037.00
2022-12-04T10:55:03.428Z,99039.63
2022-12-04T10:57:40.031Z,99042.13
2022-12-04T11:00:26.139Z,99037.28
2022-12-04T11:02:56.870Z,99031.06
2022-12-04T11:05:28.870Z,99020.59
2022-12-04T11:07:58.946Z,99011.00
2022-12-04T11:10:37.045Z,99002.13
2022-12-04T11:13:08.279Z,99003.28
2022-12-04T11:15:37.770Z,99009.97
2022-12-04T11:18:10.650Z,99000.44
2022-12-04T11:20:42.826Z,98996.03
2022-12-04T11:23:17.942Z,98997.69
2022-12-04T11:25:50.504Z,98998.00
2022-12-04T11:28:40.527Z,98997.19
2022-12-04T11:31:17.012Z,98988.22
2022-12-04T11:33:49.563Z,98986.16
2022-12-04T11:36:23.184Z,98976.53
2022-12-04T11:38:53.541Z,98974.72
2022-12-04T11:41:28.791Z,98970.06
2022-12-04T11:44:00.344Z,98958.66
2022-12-04T11:46:34.165Z,98949.16
2022-12-04T11:49:03.609Z,98937.66
2022-12-04T11:51:50.002Z,98936.56
2022-12-04T11:54:34.664Z,98932.91
2022-12-04T11:57:19.503Z,98937.03
2022-12-04T12:00:01.777Z,98932.75
2022-12-04T12:02:45.954Z,98929.94
2022-12-04T12:05:38.540Z,98905.34
2022-12-04T12:08:20.912Z,98909.34
2022-12-04T12:11:00.241Z,98900.72
2022-12-04T12:13:39.663Z,98896.06
2022-12-04T12:16:18.537Z,98891.03
2022-12-04T12:19:04.791Z,98894.50
2022-12-04T12:21:39.373Z,98892.75
2022-12-04T12:24:26.602Z,98895.94
2022-12-04T12:27:08.755Z,98902.88
2022-12-04T12:29:58.934Z,98910.59
2022-12-04T12:32:46.324Z,98903.63
2022-12-04T12:35:22.864Z,98905.22
2022-12-04T12:37:53.853Z,98901.69
2022-12-04T12:40:31.583Z,98903.47
2022-12-04T12:43:04.801Z,98912.81
2022-12-04T12:45:44.345Z,98911.66
2022-12-04T12:48:30.324Z,98918.69
2022-12-04T12:51:28.388Z,98921.22
2022-12-04T12:53:59.617Z,98932.66
2022-12-04T12:56:35.658Z,98931.13
2022-12-04T12:59:07.534Z,98940.00
2022-12-04T13:01:46.384Z,98933.47
2022-12-04T13:04:21.163Z,98928.34
2022-12-04T13:06:55.349Z,98932.47
2022-12-04T13:09:27.908Z,98932.41
2022-12-04T13:12:06.954Z,98919.28
2022-12-04T13:14:35.354Z,98925.88
2022-12-04T13:17:10.354Z,98917.84
2022-12-04T13:19:44.379Z,98917.41
2022-12-04T13:22:20.138Z,98909.91
2022-12-04T13:25:19.694Z,98923.88
2022-12-04T13:27:59.499Z,98935.84
2022-12-04T13:30:33.361Z,98926.59
2022-12-04T13:33:33.143Z,98923.41
2022-12-04T13:36:27.903Z,98913.16
2022-12-04T13:39:24.776Z,98925.81
2022-12-04T13:41:59.967Z,98918.84
2022-12-04T13:44:29.951Z,98905.22
2022-12-04T13:47:04.114Z,98911.66
2022-12-04T13:49:35.754Z,98905.69
2022-12-04T13:52:07.281Z,98900.06
2022-12-04T13:54:38.203Z,98910.97
2022-12-04T13:57:22.730Z,98908.19
2022-12-04T14:00:05.327Z,98907.50
2022-12-04T14:02:38.056Z,98904.56
2022-12-04T14:05:10.418Z,98901.31
2022-12-04T14:07:42.496Z,98900.41
2022-12-04T14:10:28.662Z,98891.66
2022-12-04T14:13:01.435Z,98888.25
2022-12-04T14:15:32.638Z,98890.28
2022-12-04T14:18:03.838Z,98895.78
2022-12-04T14:20:40.652Z,98890.41
2022-12-04T14:23:12.381Z,98893.53
2022-12-04T14:25:41.966Z,98892.63
2022-12-04T14:28:29.436Z,98902.03
2022-12-04T14:31:19.848Z,98893.41
2022-12-04T14:33:52.420Z,98879.44
2022-12-04T14:36:26.516Z,98872.75
2022-12-04T14:39:07.723Z,98874.59
2022-12-04T14:41:36.222Z,98879.88
2022-12-04T14:44:04.897Z,98866.94
2022-12-04T14:46:41.558Z,98871.03
2022-12-04T14:49:23.244Z,98875.44
2022-12-04T14:52:01.371Z,98871.91
2022-12-04T14:54:34.859Z,98877.00
2022-12-04T14:57:20.384Z,98875.34
2022-12-04T14:59:52.756Z,98883.78
2022-12-04T15:02:23.980Z,98877.78
2022-12-04T15:04:52.974Z,98889.59
2022-12-04T15:07:24.961Z,98884.63
2022-12-04T15:10:11.745Z,98892.66
2022-12-04T15:12:50.102Z,98888.81
2022-12-04T15:15:22.420Z,98895.63
2022-12-04T15:17:58.391Z,98897.63
2022-12-04T15:20:27.919Z,98892.56
2022-12-04T15:22:59.150Z,98894.50
2022-12-04T15:25:32.110Z,98897.06
2022-12-04T15:28:08.179Z,98899.41
2022-12-04T15:30:39.697Z,98900.53
2022-12-04T15:33:10.518Z,98896.28
2022-12-04T15:35:44.269Z,98904.06
2022-12-04T15:38:16.024Z,98905.56
2022-12-04T15:40:53.094Z,98908.72
2022-12-04T15:43:29.684Z,98907.25
2022-12-04T15:45:59.729Z,98900.00
2022-12-04T15:48:32.246Z,98918.94
2022-12-04T15:51:04.002Z,98910.25
2022-12-04T15:53:37.947Z,98912.00
2022-12-04T15:56:08.866Z,98909.53
2022-12-04T15:58:39.615Z,98914.84
2022-12-04T16:01:10.838Z,98916.53
2022-12-04T16:03:49.200Z,98912.94
2022-12-04T16:06:20.754Z,98928.69
2022-12-04T16:08:52.176Z,98917.25
2022-12-04T16:11:33.679Z,98926.81
2022-12-04T16:14:15.682Z,98938.25
2022-12-04T16:16:48.491Z,98940.00
2022-12-04T16:19:27.656Z,98933.53
2022-12-04T16:21:56.394Z,98926.59
2022-12-04T16:24:27.559Z,98938.09
2022-12-04T16:26:57.496Z,98929.50
2022-12-04T16:29:25.735Z,98934.72
2022-12-04T16:31:59.610Z,98917.00
2022-12-04T16:34:32.478Z,98915.19
2022-12-04T16:37:01.027Z,98932.75
2022-12-04T16:39:33.761Z,98933.66
2022-12-04T16:42:05.639Z,98931.97
2022-12-04T16:44:34.069Z,98937.13
2022-12-04T16:47:02.280Z,98928.03
2022-12-04T16:49:30.844Z,98930.25
2022-12-04T16:51:59.052Z,98925.59
2022-12-04T16:54:27.660Z,98923.16
2022-12-04T16:56:57.888Z,98927.63
2022-12-04T16:59:26.039Z,98928.56
2022-12-04T17:01:55.006Z,98931.16
2022-12-04T17:04:23.824Z,98929.28
2022-12-04T17:06:52.026Z,98924.84
2022-12-04T17:09:20.697Z,98928.25
2022-12-04T17:11:48.877Z,98933.66
2022-12-04T17:14:18.779Z,98925.75
2022-12-04T17:16:47.396Z,98924.72
2022-12-04T17:19:15.991Z,98918.69
2022-12-04T17:21:45.262Z,98920.38
2022-12-04T17:24:13.541Z,98910.72
2022-12-04T17:26:41.639Z,98921.97
2022-12-04T17:29:10.684Z,98909.94
2022-12-04T17:31:40.823Z,98912.75
2022-12-04T17:34:09.502Z,98910.19
2022-12-04T17:36:37.669Z,98909.03
2022-12-04T17:39:11.794Z,98914.25
2022-12-04T17:41:40.137Z,98910.72
2022-12-04T17:44:09.569Z,98910.25
2022-12-04T17:46:39.269Z,98901.50
2022-12-04T17:49:07.781Z,98914.44
2022-12-04T17:51:36.410Z,98903.03
2022-12-04T17:54:06.832Z,98900.25
2022-12-04T17:56:35.761Z,98915.19
2022-12-04T17:59:04.829Z,98909.34
2022-12-04T18:01:33.625Z,98914.50
2022-12-04T18:04:06.321Z,98908.19
2022-12-04T18:06:36.854Z,98903.28
2022-12-04T18:09:05.815Z,98904.97
2022-12-04T18:11:37.443Z,98901.50
2022-12-04T18:14:11.653Z,98906.72
2022-12-04T18:16:43.550Z,98894.50
2022-12-04T18:19:13.815Z,98898.19
2022-12-04T18:21:45.176Z,98903.25
2022-12-04T18:24:14.664Z,98904.91
2022-12-04T18:26:45.067Z,98906.72
2022-12-04T18:29:16.582Z,98903.19
2022-12-04T18:31:45.654Z,98905.88
2022-12-04T18:34:16.146Z,98911.63
2022-12-04T18:37:02.464Z,98913.59
2022-12-04T18:39:30.726Z,98911.78
2022-12-04T18:41:58.925Z,98911.78
2022-12-04T18:44:27.953Z,98912.41
2022-12-04T18:46:56.120Z,98909.03
2022-12-04T18:49:26.319Z,98910.72
2022-12-04T18:51:54.758Z,98903.06
2022-12-04T18:54:25.574Z,98908.50
2022-12-04T18:56:54.097Z,98904.69
2022-12-04T18:59:24.135Z,98901.56
2022-12-04T19:01:53.370Z,98897.97
2022-12-04T19:04:24.411Z,98895.25
2022-12-04T19:06:56.771Z,98892.63
2022-12-04T19:10:08.994Z,98885.47
2022-12-04T19:12:18.458Z,98878.69
2022-12-04T19:14:46.618Z,98873.66
2022-12-04T19:17:16.468Z,98867.25
2022-12-04T19:19:44.727Z,98866.53
2022-12-04T19:22:14.612Z,98865.75
2022-12-04T19:24:43.539Z,98872.81
2022-12-04T19:27:12.269Z,98874.50
2022-12-04T19:29:41.313Z,98875.22
2022-12-04T19:32:11.004Z,98881.31
2022-12-04T19:34:39.186Z,98886.66
2022-12-04T19:37:07.769Z,98907.13
2022-12-04T19:39:38.220Z,98907.81
2022-12-04T19:42:07.606Z,98915.66
2022-12-04T19:44:51.220Z,98917.25
2022-12-04T19:47:20.500Z,98916.91
2022-12-04T19:49:48.824Z,98917.13
2022-12-04T19:52:18.270Z,98921.44
2022-12-04T19:54:48.323Z,98917.69
2022-12-04T19:57:16.905Z,98916.34
2022-12-04T19:59:46.793Z,98913.66
2022-12-04T20:02:15.920Z,98917.03
2022-12-04T20:04:44.550Z,98919.41
2022-12-04T20:07:15.649Z,98918.91
2022-12-04T20:09:52.057Z,98917.81
2022-12-04T20:12:22.781Z,98923.38
2022-12-04T20:14:51.342Z,98917.09
2022-12-04T20:17:19.971Z,98927.28
2022-12-04T20:19:48.063Z,98927.19
2022-12-04T20:22:16.437Z,98929.78
2022-12-04T20:24:44.925Z,98935.16
2022-12-04T20:27:13.685Z,98928.03
2022-12-04T20:29:43.842Z,98922.44
2022-12-04T20:32:12.340Z,98920.91
2022-12-04T20:34:44.205Z,98916.28
2022-12-04T20:37:12.872Z,98916.06
2022-12-04T20:39:42.295Z,98917.91
2022-12-04T20:42:10.685Z,98928.63
2022-12-04T20:44:39.183Z,98917.91
2022-12-04T20:47:09.550Z,98913.94
2022-12-04T20:49:38.342Z,98914.41
2022-12-04T20:52:07.570Z,98906.84
2022-12-04T20:54:41.253Z,98913.31
2022-12-04T20:57:10.779Z,98915.69
2022-12-04T20:59:39.380Z,98924.47
2022-12-04T21:02:09.634Z,98926.16
2022-12-04T21:04:40.888Z,98933.91
2022-12-04T21:07:09.735Z,98934.81
2022-12-04T21:09:38.951Z,98945.56
2022-12-04T21:12:28.853Z,98951.06
2022-12-04T21:15:14.414Z,98951.31
2022-12-04T21:17:44.222Z,98952.09
2022-12-04T21:20:13.213Z,98948.38
2022-12-04T21:22:44.823Z,98957.16
2022-12-04T21:25:16.158Z,98965.91
2022-12-04T21:27:44.575Z,98960.94
2022-12-04T21:30:15.098Z,98956.72
2022-12-04T21:32:44.991Z,98963.34
2022-12-04T21:35:16.509Z,98960.59
2022-12-04T21:37:45.959Z,98960.75
2022-12-04T21:40:14.475Z,98961.84
2022-12-04T21:42:44.116Z,98958.88
2022-12-04T21:45:13.355Z,98968.75
2022-12-04T21:47:41.893Z,98968.38
2022-12-04T21:50:12.380Z,98972.50
2022-12-04T21:52:43.268Z,98974.28
2022-12-04T21:55:11.540Z,98967.53
2022-12-04T21:57:39.677Z,98964.00
2022-12-04T22:00:09.813Z,98965.06
2022-12-04T22:02:40.269Z,98966.50
2022-12-04T22:05:09.418Z,98969.16
2022-12-04T22:07:39.062Z,98967.47
2022-12-04T22:10:11.082Z,98964.25
2022-12-04T22:12:49.546Z,98965.25
2022-12-04T22:15:18.625Z,98970.19
2022-12-04T22:17:46.736Z,98974.59
2022-12-04T22:20:15.531Z,98971.50
2022-12-04T22:22:45.279Z,98978.25
2022-12-04T22:25:17.488Z,98975.38
2022-12-04T22:27:45.842Z,98980.53
2022-12-04T22:30:15.118Z,98980.69
2022-12-04T22:32:43.330Z,98972.75
2022-12-04T22:35:12.523Z,98963.28
2022-12-04T22:37:44.702Z,98966.28
2022-12-04T22:40:17.112Z,98965.63
2022-12-04T22:42:46.157Z,98965.06
2022-12-04T22:45:14.760Z,98969.75
2022-12-04T22:47:43.042Z,98970.75
2022-12-04T22:50:12.904Z,98962.13
2022-12-04T22:52:41.926Z,98961.44
2022-12-04T22:55:10.439Z,98968.50
2022-12-04T22:57:40.969Z,98965.28
2022-12-04T23:00:11.107Z,98970.47
2022-12-04T23:02:39.642Z,98976.69
2022-12-04T23:05:08.221Z,98976.03
2022-12-04T23:07:37.604Z,98977.41
2022-12-04T23:10:07.987Z,98979.84
2022-12-04T23:12:36.189Z,98975.84
2022-12-04T23:15:06.835Z,98980.94
2022-12-04T23:17:38.052Z,98972.31
2022-12-04T23:20:08.027Z,98974.66
2022-12-04T23:22:36.416Z,98972.22
2022-12-04T23:25:05.059Z,98974.72
2022-12-04T23:27:33.772Z,98984.00
2022-12-04T23:30:01.902Z,98978.03
2022-12-04T23:32:31.796Z,98972.81
2022-12-04T23:34:59.885Z,98984.53
2022-12-04T23:37:28.919Z,98982.91
2022-12-04T23:39:57.360Z,98980.22
2022-12-04T23:42:26.520Z,98992.38
2022-12-04T23:44:55.079Z,98985.56
2022-12-04T23:47:23.527Z,98990.59
2022-12-04T23:49:53.306Z,98987.81
2022-12-04T23:52:21.462Z,98992.34
2022-12-04T23:54:49.893Z,98988.91
2022-12-04T23:57:18.381Z,98982.63
2022-12-04T23:59:46.415Z,98985.13
